createdAt,value
2022-08-18T00:01:07.992Z,2.17
2022-08-18T00:03:56.516Z,2.20
2022-08-18T00:06:23.847Z,2.40
2022-08-18T00:08:58.629Z,2.23
2022-08-18T00:11:27.328Z,2.50
2022-08-18T00:13:55.231Z,1.90
2022-08-18T00:16:23.605Z,2.03
2022-08-18T00:18:51.528Z,1.90
2022-08-18T00:21:19.817Z,1.83
2022-08-18T00:23:47.836Z,2.40
2022-08-18T00:26:17.127Z,2.20
2022-08-18T00:28:45.052Z,2.10
2022-08-18T00:31:12.979Z,2.07
2022-08-18T00:33:40.905Z,2.10
2022-08-18T00:36:08.857Z,2.10
2022-08-18T00:38:36.847Z,1.60
2022-08-18T00:41:05.675Z,1.60
2022-08-18T00:43:40.716Z,2.20
2022-08-18T00:46:10.929Z,1.90
2022-08-18T00:48:38.888Z,2.30
2022-08-18T00:51:12.637Z,2.10
2022-08-18T00:53:45.987Z,2.23
2022-08-18T00:56:18.042Z,2.03
2022-08-18T00:58:51.662Z,2.20
2022-08-18T01:01:23.779Z,2.30
2022-08-18T01:04:00.304Z,2.00
2022-08-18T01:06:33.346Z,1.90
2022-08-18T01:09:01.751Z,2.03
2022-08-18T01:11:30.297Z,2.10
2022-08-18T01:14:00.638Z,2.00
2022-08-18T01:16:53.234Z,2.50
2022-08-18T01:19:44.021Z,2.10
2022-08-18T01:22:18.024Z,2.07
2022-08-18T01:25:04.688Z,2.00
2022-08-18T01:27:34.099Z,2.20
2022-08-18T01:30:07.371Z,1.87
2022-08-18T01:32:35.301Z,1.73
2022-08-18T01:35:03.463Z,2.00
2022-08-18T01:37:31.741Z,1.97
2022-08-18T01:41:17.376Z,2.20
2022-08-18T01:42:49.294Z,1.83
2022-08-18T01:45:20.651Z,2.20
2022-08-18T01:47:50.575Z,1.77
2022-08-18T01:50:19.305Z,1.90
2022-08-18T01:52:47.313Z,2.37
2022-08-18T01:55:18.150Z,2.37
2022-08-18T01:57:46.989Z,2.50
2022-08-18T02:00:18.057Z,1.97
2022-08-18T02:02:47.031Z,2.17
2022-08-18T02:05:34.397Z,2.07
2022-08-18T02:08:02.288Z,1.77
2022-08-18T02:10:31.793Z,2.17
2022-08-18T02:12:59.795Z,2.53
2022-08-18T02:15:28.150Z,1.70
2022-08-18T02:17:56.053Z,2.30
2022-08-18T02:20:24.086Z,1.90
2022-08-18T02:22:52.478Z,2.20
2022-08-18T02:25:20.723Z,2.07
2022-08-18T02:27:50.252Z,1.87
2022-08-18T02:30:19.806Z,2.20
2022-08-18T02:32:48.405Z,2.30
2022-08-18T02:35:16.960Z,2.00
2022-08-18T02:37:47.955Z,1.83
2022-08-18T02:40:17.036Z,1.83
2022-08-18T02:42:45.736Z,2.00
2022-08-18T02:45:15.608Z,2.07
2022-08-18T02:47:44.323Z,2.10
2022-08-18T02:50:12.602Z,2.00
2022-08-18T02:52:41.315Z,1.73
2022-08-18T02:55:10.218Z,1.80
2022-08-18T02:57:42.155Z,2.07
2022-08-18T03:00:12.939Z,2.10
2022-08-18T03:02:46.087Z,2.10
2022-08-18T03:05:14.788Z,2.20
2022-08-18T03:07:43.152Z,2.07
2022-08-18T03:10:31.618Z,2.00
2022-08-18T03:12:59.518Z,1.90
2022-08-18T03:15:27.449Z,1.90
2022-08-18T03:17:58.210Z,2.27
2022-08-18T03:20:30.912Z,1.90
2022-08-18T03:23:05.483Z,2.00
2022-08-18T03:25:38.368Z,2.30
2022-08-18T03:28:07.015Z,2.07
2022-08-18T03:30:34.929Z,2.13
2022-08-18T03:33:04.240Z,1.70
2022-08-18T03:35:32.146Z,2.10
2022-08-18T03:38:00.493Z,2.07
2022-08-18T03:40:28.411Z,1.93
2022-08-18T03:42:57.309Z,2.00
2022-08-18T03:45:31.929Z,2.27
2022-08-18T03:48:00.677Z,2.03
2022-08-18T03:50:32.215Z,2.13
2022-08-18T03:53:00.203Z,2.10
2022-08-18T03:55:29.205Z,1.93
2022-08-18T03:58:02.713Z,2.13
2022-08-18T04:00:31.722Z,2.10
2022-08-18T04:03:00.435Z,2.00
2022-08-18T04:05:29.915Z,2.40
2022-08-18T04:07:58.172Z,2.13
2022-08-18T04:10:26.116Z,1.90
2022-08-18T04:12:54.021Z,2.00
2022-08-18T04:15:21.934Z,2.20
2022-08-18T04:18:02.955Z,1.80
2022-08-18T04:20:33.703Z,2.17
2022-08-18T04:23:02.057Z,2.30
2022-08-18T04:25:32.869Z,1.70
2022-08-18T04:28:03.490Z,2.03
2022-08-18T04:30:32.313Z,2.30
2022-08-18T04:33:02.621Z,2.17
2022-08-18T04:35:33.612Z,2.10
2022-08-18T04:38:01.537Z,2.20
2022-08-18T04:40:29.933Z,2.10
2022-08-18T04:42:58.016Z,2.33
2022-08-18T04:45:26.143Z,2.30
2022-08-18T04:47:54.206Z,2.10
2022-08-18T04:50:24.419Z,2.40
2022-08-18T04:53:11.397Z,1.80
2022-08-18T04:55:39.248Z,1.90
2022-08-18T04:58:07.872Z,2.00
2022-08-18T05:00:35.815Z,2.30
2022-08-18T05:03:03.746Z,1.87
2022-08-18T05:05:31.655Z,1.93
2022-08-18T05:08:00.903Z,2.20
2022-08-18T05:10:29.352Z,2.10
2022-08-18T05:12:57.526Z,2.20
2022-08-18T05:15:26.363Z,2.27
2022-08-18T05:17:54.486Z,1.73
2022-08-18T05:20:23.200Z,2.20
2022-08-18T05:22:51.317Z,2.13
2022-08-18T05:25:20.927Z,1.90
2022-08-18T05:27:48.840Z,2.07
2022-08-18T05:30:16.946Z,2.50
2022-08-18T05:32:50.100Z,1.80
2022-08-18T05:35:23.394Z,1.90
2022-08-18T05:38:07.653Z,2.50
2022-08-18T05:40:37.650Z,1.90
2022-08-18T05:43:07.060Z,1.83
2022-08-18T05:45:36.133Z,2.00
2022-08-18T05:48:04.409Z,2.20
2022-08-18T05:50:36.501Z,2.47
2022-08-18T05:53:13.770Z,2.10
2022-08-18T05:56:06.313Z,1.90
2022-08-18T05:58:38.092Z,1.93
2022-08-18T06:01:09.868Z,1.90
2022-08-18T06:03:45.080Z,1.83
2022-08-18T06:06:19.439Z,2.10
2022-08-18T06:08:53.647Z,2.27
2022-08-18T06:11:23.320Z,1.63
2022-08-18T06:13:57.754Z,2.00
2022-08-18T06:16:47.402Z,2.43
2022-08-18T06:19:35.354Z,2.20
2022-08-18T06:22:14.848Z,1.93
2022-08-18T06:24:50.975Z,2.40
2022-08-18T06:27:27.926Z,1.70
2022-08-18T06:30:07.291Z,1.70
2022-08-18T06:32:57.671Z,2.00
2022-08-18T06:35:34.756Z,1.80
2022-08-18T06:38:29.802Z,2.13
2022-08-18T06:41:03.896Z,1.93
2022-08-18T06:43:35.182Z,1.70
2022-08-18T06:46:08.944Z,1.80
2022-08-18T06:48:43.706Z,1.90
2022-08-18T06:51:15.681Z,1.87
2022-08-18T06:53:59.651Z,1.73
2022-08-18T06:56:34.889Z,1.47
2022-08-18T06:59:20.552Z,2.00
2022-08-18T07:01:51.780Z,2.67
2022-08-18T07:04:38.633Z,2.07
2022-08-18T07:07:15.344Z,1.97
2022-08-18T07:09:43.320Z,2.20
2022-08-18T07:12:19.365Z,2.10
2022-08-18T07:14:50.462Z,2.27
2022-08-18T07:17:42.788Z,2.07
2022-08-18T07:20:21.452Z,2.07
2022-08-18T07:22:54.392Z,1.80
2022-08-18T07:25:26.072Z,1.70
2022-08-18T07:27:56.251Z,1.93
2022-08-18T07:30:35.823Z,2.10
2022-08-18T07:33:18.497Z,1.87
2022-08-18T07:35:50.263Z,2.10
2022-08-18T07:38:42.154Z,1.83
2022-08-18T07:41:16.526Z,1.90
2022-08-18T07:43:54.726Z,2.00
2022-08-18T07:46:31.265Z,2.17
2022-08-18T07:48:59.680Z,1.83
2022-08-18T07:51:45.592Z,1.77
2022-08-18T07:54:48.269Z,2.03
2022-08-18T07:57:20.235Z,2.23
2022-08-18T07:59:58.329Z,1.60
2022-08-18T08:02:41.760Z,1.60
2022-08-18T08:05:20.765Z,1.60
2022-08-18T08:07:56.104Z,1.70
2022-08-18T08:10:33.718Z,2.33
2022-08-18T08:13:37.046Z,1.73
2022-08-18T08:16:13.553Z,2.27
2022-08-18T08:18:54.176Z,2.20
2022-08-18T08:21:25.769Z,2.03
2022-08-18T08:24:03.476Z,2.00
2022-08-18T08:26:43.055Z,1.90
2022-08-18T08:29:23.667Z,1.60
2022-08-18T08:31:58.804Z,1.70
2022-08-18T08:34:32.345Z,1.90
2022-08-18T08:37:03.863Z,2.07
2022-08-18T08:39:38.177Z,1.93
2022-08-18T08:42:30.736Z,2.03
2022-08-18T08:45:06.253Z,1.90
2022-08-18T08:47:40.017Z,2.20
2022-08-18T08:50:15.208Z,1.80
2022-08-18T08:52:47.358Z,1.80
2022-08-18T08:55:19.202Z,2.00
2022-08-18T08:57:53.639Z,2.00
2022-08-18T09:00:21.960Z,2.10
2022-08-18T09:03:19.213Z,2.00
2022-08-18T09:06:16.811Z,1.70
2022-08-18T09:09:00.063Z,1.67
2022-08-18T09:11:57.535Z,1.73
2022-08-18T09:15:04.713Z,1.50
2022-08-18T09:17:53.959Z,1.97
2022-08-18T09:20:35.396Z,2.13
2022-08-18T09:23:09.713Z,2.00
2022-08-18T09:25:48.117Z,2.20
2022-08-18T09:28:18.326Z,1.93
2022-08-18T09:31:14.584Z,1.80
2022-08-18T09:34:10.882Z,1.97
2022-08-18T09:36:55.185Z,2.00
2022-08-18T09:39:54.299Z,2.10
2022-08-18T09:42:49.957Z,1.93
2022-08-18T09:45:55.370Z,1.93
2022-08-18T09:48:28.244Z,2.00
2022-08-18T09:51:32.069Z,1.80
2022-08-18T09:54:14.155Z,2.40
2022-08-18T09:57:19.280Z,2.03
2022-08-18T10:00:19.484Z,1.90
2022-08-18T10:03:14.927Z,2.10
2022-08-18T10:06:04.725Z,2.13
2022-08-18T10:09:17.760Z,2.00
2022-08-18T10:12:16.186Z,2.43
2022-08-18T10:15:14.763Z,1.83
2022-08-18T10:18:31.206Z,1.97
2022-08-18T10:21:09.919Z,2.10
2022-08-18T10:24:14.755Z,2.27
2022-08-18T10:27:32.755Z,2.23
2022-08-18T10:30:01.911Z,1.90
2022-08-18T10:32:52.395Z,1.90
2022-08-18T10:35:58.360Z,2.20
2022-08-18T10:38:39.204Z,2.17
2022-08-18T10:41:15.584Z,1.80
2022-08-18T10:43:57.362Z,2.60
2022-08-18T10:46:46.783Z,1.77
2022-08-18T10:49:25.266Z,1.83
2022-08-18T10:52:27.864Z,1.90
2022-08-18T10:55:14.513Z,2.17
2022-08-18T10:58:04.422Z,2.10
2022-08-18T11:00:48.625Z,1.80
2022-08-18T11:03:51.978Z,2.00
2022-08-18T11:06:24.618Z,1.90
2022-08-18T11:08:57.558Z,2.00
2022-08-18T11:11:37.442Z,2.60
2022-08-18T11:14:17.032Z,1.90
2022-08-18T11:16:54.151Z,1.60
2022-08-18T11:19:23.278Z,1.90
2022-08-18T11:21:53.254Z,2.30
2022-08-18T11:24:25.011Z,2.23
2022-08-18T11:26:58.651Z,2.13
2022-08-18T11:29:32.177Z,1.93
2022-08-18T11:32:11.231Z,2.10
2022-08-18T11:34:52.022Z,1.63
2022-08-18T11:37:27.025Z,2.03
2022-08-18T11:39:58.621Z,1.90
2022-08-18T11:42:33.218Z,1.80
2022-08-18T11:45:08.042Z,2.00
2022-08-18T11:47:39.374Z,2.00
2022-08-18T11:50:10.387Z,2.00
2022-08-18T11:52:53.787Z,1.87
2022-08-18T11:55:31.739Z,2.10
2022-08-18T11:58:00.449Z,1.90
2022-08-18T12:00:57.178Z,2.37
2022-08-18T12:03:39.258Z,2.50
2022-08-18T12:06:26.782Z,2.50
2022-08-18T12:09:00.691Z,2.53
2022-08-18T12:11:32.487Z,2.10
2022-08-18T12:14:30.345Z,2.20
2022-08-18T12:16:56.854Z,2.00
2022-08-18T12:19:30.656Z,2.00
2022-08-18T12:22:00.683Z,2.33
2022-08-18T12:27:24.505Z,2.30
2022-08-18T12:29:53.593Z,2.50
2022-08-18T12:32:41.433Z,2.63
2022-08-18T12:35:13.126Z,2.60
2022-08-18T12:38:12.383Z,2.10
2022-08-18T12:40:32.992Z,2.80
2022-08-18T12:43:00.999Z,2.23
2022-08-18T12:45:30.959Z,2.13
2022-08-18T12:48:02.597Z,2.60
2022-08-18T12:50:39.128Z,2.20
2022-08-18T12:53:18.556Z,2.30
2022-08-18T12:55:59.235Z,2.80
2022-08-18T12:58:28.889Z,2.70
2022-08-18T13:00:57.117Z,2.70
2022-08-18T13:03:25.173Z,2.60
2022-08-18T13:05:57.036Z,2.80
2022-08-18T13:08:33.682Z,3.03
2022-08-18T13:11:23.510Z,3.07
2022-08-18T13:13:56.063Z,2.90
2022-08-18T13:16:38.788Z,2.83
2022-08-18T13:19:13.967Z,2.90
2022-08-18T13:21:43.394Z,2.97
2022-08-18T13:24:13.074Z,2.80
2022-08-18T13:26:45.810Z,2.90
2022-08-18T13:29:15.558Z,3.17
2022-08-18T13:31:56.151Z,3.47
2022-08-18T13:34:27.600Z,2.40
2022-08-18T13:36:59.442Z,2.60
2022-08-18T13:39:33.931Z,2.57
2022-08-18T13:42:25.094Z,2.50
2022-08-18T13:44:53.437Z,3.00
2022-08-18T13:47:21.774Z,2.30
2022-08-18T13:49:57.994Z,2.57
2022-08-18T13:52:35.617Z,2.93
2022-08-18T13:55:11.683Z,3.03
2022-08-18T13:57:41.838Z,2.77
2022-08-18T14:00:17.945Z,2.53
2022-08-18T14:02:50.103Z,2.40
2022-08-18T14:05:18.446Z,2.83
2022-08-18T14:07:50.191Z,2.23
2022-08-18T14:10:21.718Z,2.40
2022-08-18T14:12:50.487Z,2.60
2022-08-18T14:15:18.383Z,2.40
2022-08-18T14:17:46.829Z,2.90
2022-08-18T14:20:34.895Z,2.80
2022-08-18T14:23:31.936Z,2.40
2022-08-18T14:26:19.048Z,2.50
2022-08-18T14:28:47.581Z,2.00
2022-08-18T14:31:20.593Z,2.27
2022-08-18T14:33:54.212Z,2.20
2022-08-18T14:36:29.390Z,2.20
2022-08-18T14:38:59.801Z,2.20
2022-08-18T14:41:28.181Z,2.40
2022-08-18T14:44:13.529Z,2.77
2022-08-18T14:46:52.005Z,2.80
2022-08-18T14:49:28.780Z,2.50
2022-08-18T14:51:58.688Z,2.87
2022-08-18T14:54:28.745Z,2.50
2022-08-18T14:56:58.298Z,2.53
2022-08-18T14:59:28.357Z,2.70
2022-08-18T15:01:56.627Z,2.47
2022-08-18T15:04:24.620Z,2.37
2022-08-18T15:06:56.831Z,2.50
2022-08-18T15:09:27.693Z,2.73
2022-08-18T15:11:58.391Z,2.37
2022-08-18T15:14:32.969Z,2.50
2022-08-18T15:17:02.448Z,2.60
2022-08-18T15:20:01.576Z,2.53
2022-08-18T15:22:37.433Z,2.77
2022-08-18T15:25:26.819Z,2.67
2022-08-18T15:27:55.919Z,2.33
2022-08-18T15:30:23.899Z,2.13
2022-08-18T15:32:52.074Z,2.50
2022-08-18T15:35:21.254Z,2.60
2022-08-18T15:37:51.438Z,2.40
2022-08-18T15:40:35.958Z,3.30
2022-08-18T15:43:10.611Z,2.03
2022-08-18T15:45:42.959Z,2.73
2022-08-18T15:48:21.379Z,2.27
2022-08-18T15:50:51.167Z,2.60
2022-08-18T15:53:21.419Z,2.67
2022-08-18T15:55:51.323Z,2.30
2022-08-18T15:58:22.159Z,2.53
2022-08-18T16:00:52.308Z,2.20
2022-08-18T16:03:21.831Z,2.20
2022-08-18T16:05:53.459Z,2.50
2022-08-18T16:08:22.967Z,2.63
2022-08-18T16:10:52.971Z,2.33
2022-08-18T16:13:21.174Z,2.70
2022-08-18T16:15:50.337Z,2.23
2022-08-18T16:18:20.907Z,2.73
2022-08-18T16:20:50.553Z,2.77
2022-08-18T16:23:20.765Z,2.27
2022-08-18T16:25:48.742Z,2.13
2022-08-18T16:28:17.931Z,2.07
2022-08-18T16:30:48.051Z,2.37
2022-08-18T16:33:17.110Z,2.50
2022-08-18T16:35:45.350Z,2.20
2022-08-18T16:38:13.775Z,2.90
2022-08-18T16:40:41.896Z,3.00
2022-08-18T16:43:10.422Z,2.50
2022-08-18T16:45:42.704Z,2.80
2022-08-18T16:48:16.657Z,2.20
2022-08-18T16:50:46.236Z,2.77
2022-08-18T16:53:14.144Z,2.37
2022-08-18T16:55:43.561Z,2.30
2022-08-18T16:58:28.728Z,2.70
2022-08-18T17:01:18.961Z,2.40
2022-08-18T17:04:04.595Z,3.00
2022-08-18T17:06:47.311Z,2.60
2022-08-18T17:09:16.436Z,2.53
2022-08-18T17:11:51.630Z,2.60
2022-08-18T17:14:21.645Z,2.43
2022-08-18T17:16:54.784Z,3.13
2022-08-18T17:19:23.954Z,2.63
2022-08-18T17:21:51.997Z,2.77
2022-08-18T17:24:32.267Z,2.90
2022-08-18T17:27:12.013Z,2.37
2022-08-18T17:30:02.563Z,2.80
2022-08-18T17:35:15.407Z,3.27
2022-08-18T17:37:49.326Z,2.57
2022-08-18T17:40:21.145Z,2.40
2022-08-18T17:42:51.560Z,3.10
2022-08-18T17:45:22.042Z,2.80
2022-08-18T17:47:57.859Z,3.00
2022-08-18T17:50:48.564Z,3.00
2022-08-18T17:53:17.565Z,3.10
2022-08-18T17:55:50.195Z,2.80
2022-08-18T17:58:22.135Z,3.17
2022-08-18T18:00:50.005Z,2.67
2022-08-18T18:03:19.576Z,2.90
2022-08-18T18:05:51.637Z,2.90
2022-08-18T18:08:19.632Z,3.10
2022-08-18T18:11:05.565Z,2.80
2022-08-18T18:13:35.057Z,2.83
2022-08-18T18:16:23.982Z,3.10
2022-08-18T18:19:01.477Z,2.97
2022-08-18T18:21:55.328Z,2.83
2022-08-18T18:24:23.843Z,3.20
2022-08-18T18:26:53.096Z,2.80
2022-08-18T18:29:32.303Z,2.50
2022-08-18T18:32:04.424Z,2.50
2022-08-18T18:34:39.292Z,2.87
2022-08-18T18:37:25.161Z,2.77
2022-08-18T18:39:58.049Z,2.40
2022-08-18T18:42:28.627Z,2.60
2022-08-18T18:44:59.023Z,3.17
2022-08-18T18:47:42.582Z,2.27
2022-08-18T18:50:16.611Z,2.43
2022-08-18T18:52:50.902Z,2.57
2022-08-18T18:55:24.320Z,2.80
2022-08-18T18:58:02.379Z,2.60
2022-08-18T19:00:36.556Z,2.57
2022-08-18T19:03:11.929Z,3.13
2022-08-18T19:05:48.033Z,3.40
2022-08-18T19:08:33.683Z,2.80
2022-08-18T19:11:11.245Z,2.47
2022-08-18T19:13:42.973Z,3.37
2022-08-18T19:16:24.185Z,2.77
2022-08-18T19:18:57.801Z,2.63
2022-08-18T19:22:04.493Z,2.40
2022-08-18T19:24:38.990Z,2.47
2022-08-18T19:27:11.777Z,2.70
2022-08-18T19:29:44.008Z,3.40
2022-08-18T19:32:16.546Z,2.77
2022-08-18T19:34:51.356Z,2.60
2022-08-18T19:37:31.609Z,3.10
2022-08-18T19:40:07.867Z,3.10
2022-08-18T19:42:41.112Z,2.97
2022-08-18T19:45:19.324Z,2.93
2022-08-18T19:47:52.625Z,3.13
2022-08-18T19:50:28.418Z,2.97
2022-08-18T19:53:14.695Z,2.90
2022-08-18T19:56:16.017Z,3.30
2022-08-18T19:59:15.639Z,3.20
2022-08-18T20:01:58.496Z,3.00
2022-08-18T20:04:43.633Z,3.50
2022-08-18T20:07:37.937Z,3.13
2022-08-18T20:10:22.994Z,3.17
2022-08-18T20:13:03.973Z,3.00
2022-08-18T20:15:32.142Z,2.53
2022-08-18T20:18:07.916Z,3.20
2022-08-18T20:20:38.947Z,2.93
2022-08-18T20:23:30.569Z,2.97
2022-08-18T20:26:00.091Z,2.77
2022-08-18T20:28:40.053Z,2.90
2022-08-18T20:31:13.436Z,3.30
2022-08-18T20:33:46.903Z,3.10
2022-08-18T20:36:21.348Z,2.80
2022-08-18T20:38:51.433Z,3.30
2022-08-18T20:41:43.669Z,2.97
2022-08-18T20:44:49.469Z,2.93
2022-08-18T20:47:35.841Z,3.20
2022-08-18T20:50:36.201Z,3.13
2022-08-18T20:53:12.831Z,3.27
2022-08-18T20:55:53.171Z,3.30
2022-08-18T20:58:26.789Z,3.20
2022-08-18T21:00:58.179Z,3.27
2022-08-18T21:03:36.987Z,2.90
2022-08-18T21:06:06.345Z,3.07
2022-08-18T21:08:37.604Z,2.90
2022-08-18T21:11:10.850Z,3.07
2022-08-18T21:13:51.394Z,3.33
2022-08-18T21:16:38.504Z,3.20
2022-08-18T21:19:13.741Z,3.10
2022-08-18T21:21:46.698Z,2.90
2022-08-18T21:24:28.729Z,3.40
2022-08-18T21:26:59.048Z,3.20
2022-08-18T21:29:36.501Z,3.60
2022-08-18T21:32:19.991Z,3.10
2022-08-18T21:34:48.415Z,3.10
2022-08-18T21:37:18.081Z,3.60
2022-08-18T21:39:52.087Z,3.30
2022-08-18T21:42:26.074Z,3.30
2022-08-18T21:44:58.756Z,3.10
2022-08-18T21:47:31.087Z,2.90
2022-08-18T21:50:09.370Z,2.87
2022-08-18T21:52:39.099Z,2.97
2022-08-18T21:55:13.303Z,3.80
2022-08-18T21:58:03.402Z,2.87
2022-08-18T22:00:35.063Z,3.37
2022-08-18T22:03:22.893Z,2.80
2022-08-18T22:06:00.730Z,3.27
2022-08-18T22:08:32.631Z,3.43
2022-08-18T22:11:59.377Z,3.07
2022-08-18T22:14:36.111Z,2.70
2022-08-18T22:17:31.316Z,3.33
2022-08-18T22:20:35.320Z,2.83
2022-08-18T22:23:26.089Z,3.43
2022-08-18T22:25:54.188Z,3.13
2022-08-18T22:28:23.941Z,3.07
2022-08-18T22:30:55.231Z,3.37
2022-08-18T22:33:24.509Z,3.50
2022-08-18T22:35:55.401Z,3.30
2022-08-18T22:38:23.809Z,3.67
2022-08-18T22:40:51.681Z,3.43
2022-08-18T22:43:19.704Z,3.57
2022-08-18T22:45:47.630Z,3.17
2022-08-18T22:48:16.424Z,3.17
2022-08-18T22:50:46.651Z,3.20
2022-08-18T22:53:15.508Z,3.67
2022-08-18T22:55:43.448Z,3.17
2022-08-18T22:58:13.073Z,3.33
2022-08-18T23:00:44.870Z,3.80
2022-08-18T23:03:13.079Z,3.73
2022-08-18T23:05:41.050Z,3.80
2022-08-18T23:08:10.352Z,3.10
2022-08-18T23:10:38.315Z,3.30
2022-08-18T23:13:06.247Z,3.07
2022-08-18T23:15:47.466Z,3.07
2022-08-18T23:18:19.001Z,2.77
2022-08-18T23:20:48.940Z,3.07
2022-08-18T23:23:21.198Z,2.83
2022-08-18T23:25:50.428Z,3.10
2022-08-18T23:28:19.366Z,3.13
2022-08-18T23:30:49.034Z,3.03
2022-08-18T23:33:19.090Z,3.43
2022-08-18T23:35:48.113Z,3.60
2022-08-18T23:38:17.850Z,2.60
2022-08-18T23:40:47.531Z,3.13
2022-08-18T23:43:16.199Z,2.93
2022-08-18T23:45:47.842Z,3.03
2022-08-18T23:48:16.148Z,3.53
2022-08-18T23:50:46.310Z,3.23
2022-08-18T23:53:15.199Z,2.97
2022-08-18T23:55:44.702Z,2.83
2022-08-18T23:58:12.621Z,2.80
